This is the latest recevied weather packets stored in our database for station/object KK7ISX. If no packets are shown the sender has not sent any weather packets the latest 10 day(s).
| Time | Temp. | Humidity | Pressure | Rain* | Wind** | Luminosity | Snow |
|---|---|---|---|---|---|---|---|
| 1777907089 | 15.56° C | 56% | 1008.7 hPa | 0 mm | - | 250 W/m² | - |
| 1777906787 | 15° C | 55% | 1009 hPa | 0 mm | - | 234 W/m² | - |
| 1777906484 | 15° C | 57% | 1008.9 hPa | 0 mm | - | 221 W/m² | - |
| 1777906180 | 14.44° C | 60% | 1008.7 hPa | 0 mm | - | 206 W/m² | - |
| 1777905877 | 15° C | 60% | 1008.9 hPa | 0 mm | - | 193 W/m² | - |
| 1777905573 | 14.44° C | 61% | 1009.1 hPa | 0 mm | - | 172 W/m² | - |
| 1777905271 | 13.89° C | 60% | 1009 hPa | 0 mm | - | 66 W/m² | - |
| 1777904968 | 13.89° C | 62% | 1009.1 hPa | 0 mm | - | 48 W/m² | - |
| 1777904362 | 14.44° C | 60% | 1008.9 hPa | 0 mm | - | 46 W/m² | - |
| 1777904059 | 14.44° C | 60% | 1008.7 hPa | 0 mm | - | 44 W/m² | - |
| 1777903755 | 13.33° C | 63% | 1008.7 hPa | 0 mm | - | 43 W/m² | - |
| 1777902239 | 11.67° C | 68% | 1008.5 hPa | 0 mm | - | 64 W/m² | - |
| 1777901937 | 10° C | 73% | 1008.5 hPa | 0 mm | - | 66 W/m² | - |
| 1777901634 | 9.44° C | 75% | 1008.5 hPa | 0 mm | - | 58 W/m² | - |
| 1777901332 | 9.44° C | 75% | 1008.6 hPa | 0 mm | - | 51 W/m² | - |
| 1777901029 | 9.44° C | 75% | 1008.4 hPa | 0 mm | - | 42 W/m² | - |
| 1777900726 | 8.89° C | 77% | 1008.2 hPa | 0 mm | - | 36 W/m² | - |
| 1777900423 | 8.33° C | 79% | 1008.4 hPa | 0 mm | - | 31 W/m² | - |
| 1777900120 | 7.78° C | 80% | 1008.3 hPa | 0 mm | - | 26 W/m² | - |
| 1777899817 | 7.78° C | 80% | 1008.3 hPa | 0 mm | - | 22 W/m² | - |
| 1777899514 | 7.78° C | 80% | 1008.3 hPa | 0 mm | - | 18 W/m² | - |
| 1777899212 | 7.78° C | 82% | 1008.3 hPa | 0 mm | - | 14 W/m² | - |
| 1777898909 | 7.22° C | 82% | 1008.1 hPa | 0 mm | - | 10 W/m² | - |
| 1777898606 | 7.22° C | 83% | 1007.9 hPa | 0 mm | - | 7 W/m² | - |
| 1777898303 | 7.22° C | 84% | 1008.2 hPa | 0 mm | - | 5 W/m² | - |
* Rain latest hour (hover to see other rain measurements)
** Current wind speed in m/s (hover to see current wind gust speed)